PWSweather.com
Personal Weather Stations
Station Observations
ROSEGARDEN
Rose Garden, Brentwood, CA 94513

Rose GardenBrentwood, CA 94513

Lat: 37.967503, Lon: -121.721004

Elevation: 85

Station Type: La Crosse 2813

High Low Average
Temperature 61.9°F16.6°C 51.3°F10.7°C 58.8°F14.9°C
Dew Point 51.1°F10.6°C 44.4°F6.9°C 47.8°F8.8°C
Winds 16.9 mph 27.2 kmh 0.9 mph 1.4 kmh 8.0 mph S12.9 kmh S
Wind Gusts 23.3 mph37.5 kmh 2.0 mph3.2 kmh 12.0 mph19.3 kmh
Humidity 80% 56% 67%
Pressure 29.90 in1012.5 mb 29.72 in1006.4 mb -
Precipitation 0.16 in4.1 mm - -
Hour Temp Dew Point Humidity Winds Wind Gusts Pressure Precip Precip Rate Daily Precip Total
12:00 AM 58.3°F14.6°C 48.2°F9.0°C 69% 0.3 mph SW0.5 kmh SW 2.5 mph4.0 kmh 29.90 in1012.5 mb 0.00 in0.0 mm 0.00 in/hr0.0 mm/hr 0.00 in0.0 mm
12:05 AM 58.1°F14.5°C 48.0°F8.9°C 69% Calm Calm 2.5 mph4.0 kmh 29.90 in1012.5 mb 0.00 in0.0 mm 0.00 in/hr0.0 mm/hr 0.00 in0.0 mm
12:10 AM 58.0°F14.4°C 47.9°F8.8°C 69% 0.6 mph WSW1.0 kmh WSW 1.8 mph2.9 kmh 29.90 in1012.5 mb 0.00 in0.0 mm 0.00 in/hr0.0 mm/hr 0.00 in0.0 mm
12:15 AM 58.0°F14.4°C 47.9°F8.8°C 69% 0.7 mph NNE1.1 kmh NNE 1.8 mph2.9 kmh 29.90 in1012.5 mb 0.00 in0.0 mm 0.00 in/hr0.0 mm/hr 0.00 in0.0 mm
12:20 AM 57.6°F14.2°C 47.5°F8.6°C 69% 0.5 mph SSE0.8 kmh SSE 1.8 mph2.9 kmh 29.91 in1012.9 mb 0.00 in0.0 mm 0.00 in/hr0.0 mm/hr 0.00 in0.0 mm
12:25 AM 57.6°F14.2°C 48.2°F9.0°C 71% 1.3 mph S2.1 kmh S 1.6 mph2.6 kmh 29.91 in1012.9 mb 0.00 in0.0 mm 0.00 in/hr0.0 mm/hr 0.00 in0.0 mm
12:30 AM 57.6°F14.2°C 47.9°F8.8°C 70% 1.0 mph SSE1.6 kmh SSE 1.6 mph2.6 kmh 29.90 in1012.5 mb 0.00 in0.0 mm 0.00 in/hr0.0 mm/hr 0.00 in0.0 mm
12:35 AM 57.4°F14.1°C 47.7°F8.7°C 70% 1.3 mph W2.1 kmh W 1.8 mph2.9 kmh 29.91 in1012.9 mb 0.00 in0.0 mm 0.00 in/hr0.0 mm/hr 0.00 in0.0 mm
12:40 AM 57.2°F14.0°C 47.5°F8.6°C 70% 1.5 mph WSW2.4 kmh WSW 2.0 mph3.2 kmh 29.91 in1012.9 mb 0.00 in0.0 mm 0.00 in/hr0.0 mm/hr 0.00 in0.0 mm
12:45 AM 56.9°F13.8°C 47.5°F8.6°C 71% 0.7 mph WSW1.1 kmh WSW 2.0 mph3.2 kmh 29.91 in1012.9 mb 0.00 in0.0 mm 0.00 in/hr0.0 mm/hr 0.00 in0.0 mm
12:50 AM 56.9°F13.8°C 47.9°F8.8°C 72% 1.1 mph SW1.8 kmh SW 2.0 mph3.2 kmh 29.91 in1012.9 mb 0.00 in0.0 mm 0.00 in/hr0.0 mm/hr 0.00 in0.0 mm
12:55 AM 56.7°F13.7°C 47.7°F8.7°C 72% 1.6 mph S2.6 kmh S 2.7 mph4.3 kmh 29.90 in1012.5 mb 0.00 in0.0 mm 0.00 in/hr0.0 mm/hr 0.00 in0.0 mm
01:00 AM 56.7°F13.7°C 48.1°F8.9°C 73% 1.0 mph S1.6 kmh S 2.7 mph4.3 kmh 29.90 in1012.5 mb 0.00 in0.0 mm 0.00 in/hr0.0 mm/hr 0.00 in0.0 mm
01:05 AM 56.9°F13.8°C 47.9°F8.8°C 72% 0.9 mph SW1.4 kmh SW 2.0 mph3.2 kmh 29.90 in1012.5 mb 0.00 in0.0 mm 0.00 in/hr0.0 mm/hr 0.00 in0.0 mm
01:10 AM 56.7°F13.7°C 47.7°F8.7°C 72% 3.2 mph SSE5.1 kmh SSE 4.5 mph7.2 kmh 29.90 in1012.5 mb 0.00 in0.0 mm 0.00 in/hr0.0 mm/hr 0.00 in0.0 mm
01:15 AM 56.9°F13.8°C 47.9°F8.8°C 72% 2.8 mph SE4.5 kmh SE 4.7 mph7.6 kmh 29.89 in1012.2 mb 0.00 in0.0 mm 0.00 in/hr0.0 mm/hr 0.00 in0.0 mm
01:20 AM 57.1°F13.9°C 48.1°F8.9°C 72% 2.6 mph SSE4.2 kmh SSE 4.7 mph7.6 kmh 29.89 in1012.2 mb 0.00 in0.0 mm 0.00 in/hr0.0 mm/hr 0.00 in0.0 mm
01:25 AM 57.2°F14.0°C 47.9°F8.8°C 71% 2.9 mph S4.7 kmh S 4.7 mph7.6 kmh 29.89 in1012.2 mb 0.00 in0.0 mm 0.00 in/hr0.0 mm/hr 0.00 in0.0 mm
01:30 AM 57.6°F14.2°C 47.5°F8.6°C 69% 4.9 mph S7.9 kmh S 6.0 mph9.7 kmh 29.89 in1012.2 mb 0.00 in0.0 mm 0.00 in/hr0.0 mm/hr 0.00 in0.0 mm
01:35 AM 58.3°F14.6°C 47.8°F8.8°C 68% 6.8 mph S10.9 kmh S 9.2 mph14.8 kmh 29.88 in1011.9 mb 0.00 in0.0 mm 0.00 in/hr0.0 mm/hr 0.00 in0.0 mm
01:40 AM 58.9°F14.9°C 47.5°F8.6°C 66% 5.1 mph S8.2 kmh S 12.8 mph20.6 kmh 29.88 in1011.9 mb 0.00 in0.0 mm 0.00 in/hr0.0 mm/hr 0.00 in0.0 mm
01:45 AM 59.2°F15.1°C 47.9°F8.8°C 66% 3.6 mph SSW5.8 kmh SSW 12.8 mph20.6 kmh 29.88 in1011.9 mb 0.00 in0.0 mm 0.00 in/hr0.0 mm/hr 0.00 in0.0 mm
01:50 AM 59.0°F15.0°C 47.7°F8.7°C 66% 3.6 mph SSE5.8 kmh SSE 9.2 mph14.8 kmh 29.88 in1011.9 mb 0.00 in0.0 mm 0.00 in/hr0.0 mm/hr 0.00 in0.0 mm
01:55 AM 58.7°F14.8°C 47.7°F8.7°C 67% 3.5 mph SSE5.6 kmh SSE 6.0 mph9.7 kmh 29.88 in1011.9 mb 0.00 in0.0 mm 0.00 in/hr0.0 mm/hr 0.00 in0.0 mm
02:00 AM 58.3°F14.6°C 47.8°F8.8°C 68% 2.9 mph SE4.7 kmh SE 6.0 mph9.7 kmh 29.88 in1011.9 mb 0.00 in0.0 mm 0.00 in/hr0.0 mm/hr 0.00 in0.0 mm
02:05 AM 58.0°F14.4°C 47.4°F8.6°C 68% 1.6 mph SSE2.6 kmh SSE 4.7 mph7.6 kmh 29.87 in1011.5 mb 0.00 in0.0 mm 0.00 in/hr0.0 mm/hr 0.00 in0.0 mm
02:10 AM 57.8°F14.3°C 47.7°F8.7°C 69% 1.7 mph SE2.7 kmh SE 3.4 mph5.5 kmh 29.87 in1011.5 mb 0.00 in0.0 mm 0.00 in/hr0.0 mm/hr 0.00 in0.0 mm
02:15 AM 57.6°F14.2°C 47.5°F8.6°C 69% 2.0 mph SE3.2 kmh SE 3.6 mph5.8 kmh 29.87 in1011.5 mb 0.00 in0.0 mm 0.00 in/hr0.0 mm/hr 0.00 in0.0 mm
02:20 AM 57.4°F14.1°C 47.7°F8.7°C 70% 1.2 mph SSE1.9 kmh SSE 3.6 mph5.8 kmh 29.87 in1011.5 mb 0.00 in0.0 mm 0.00 in/hr0.0 mm/hr 0.00 in0.0 mm
02:25 AM 57.4°F14.1°C 47.7°F8.7°C 70% 2.4 mph S3.9 kmh S 3.6 mph5.8 kmh 29.87 in1011.5 mb 0.00 in0.0 mm 0.00 in/hr0.0 mm/hr 0.00 in0.0 mm
02:30 AM 57.6°F14.2°C 47.9°F8.8°C 70% 3.6 mph S5.8 kmh S 4.3 mph6.9 kmh 29.87 in1011.5 mb 0.00 in0.0 mm 0.00 in/hr0.0 mm/hr 0.00 in0.0 mm
02:35 AM 57.8°F14.3°C 48.1°F8.9°C 70% 3.7 mph S6.0 kmh S 5.1 mph8.2 kmh 29.86 in1011.2 mb 0.00 in0.0 mm 0.00 in/hr0.0 mm/hr 0.00 in0.0 mm
02:40 AM 58.0°F14.4°C 47.9°F8.8°C 69% 4.7 mph SSE7.6 kmh SSE 7.2 mph11.6 kmh 29.86 in1011.2 mb 0.00 in0.0 mm 0.00 in/hr0.0 mm/hr 0.00 in0.0 mm
02:45 AM 58.1°F14.5°C 48.0°F8.9°C 69% 4.9 mph S7.9 kmh S 7.2 mph11.6 kmh 29.85 in1010.8 mb 0.00 in0.0 mm 0.00 in/hr0.0 mm/hr 0.00 in0.0 mm
02:50 AM 58.3°F14.6°C 48.2°F9.0°C 69% 5.1 mph SE8.2 kmh SE 8.5 mph13.7 kmh 29.85 in1010.8 mb 0.00 in0.0 mm 0.00 in/hr0.0 mm/hr 0.00 in0.0 mm
02:55 AM 58.5°F14.7°C 48.0°F8.9°C 68% 4.6 mph SE7.4 kmh SE 8.5 mph13.7 kmh 29.85 in1010.8 mb 0.00 in0.0 mm 0.00 in/hr0.0 mm/hr 0.00 in0.0 mm
03:00 AM 58.7°F14.8°C 48.2°F9.0°C 68% 6.4 mph ESE10.3 kmh ESE 8.9 mph14.3 kmh 29.85 in1010.8 mb 0.00 in0.0 mm 0.00 in/hr0.0 mm/hr 0.00 in0.0 mm
03:05 AM 58.7°F14.8°C 47.7°F8.7°C 67% 3.1 mph SE5.0 kmh SE 8.9 mph14.3 kmh 29.85 in1010.8 mb 0.00 in0.0 mm 0.00 in/hr0.0 mm/hr 0.00 in0.0 mm
03:10 AM 58.9°F14.9°C 47.9°F8.8°C 67% 6.0 mph SE9.7 kmh SE 7.6 mph12.2 kmh 29.84 in1010.5 mb 0.00 in0.0 mm 0.00 in/hr0.0 mm/hr 0.00 in0.0 mm
03:15 AM 59.0°F15.0°C 48.1°F8.9°C 67% 5.5 mph SE8.9 kmh SE 9.2 mph14.8 kmh 29.84 in1010.5 mb 0.00 in0.0 mm 0.00 in/hr0.0 mm/hr 0.00 in0.0 mm
03:20 AM 58.9°F14.9°C 47.5°F8.6°C 66% 4.9 mph SE7.9 kmh SE 9.2 mph14.8 kmh 29.84 in1010.5 mb 0.00 in0.0 mm 0.00 in/hr0.0 mm/hr 0.00 in0.0 mm
03:25 AM 58.9°F14.9°C 47.5°F8.6°C 66% 3.9 mph ESE6.3 kmh ESE 6.9 mph11.1 kmh 29.84 in1010.5 mb 0.00 in0.0 mm 0.00 in/hr0.0 mm/hr 0.00 in0.0 mm
03:30 AM 58.9°F14.9°C 47.5°F8.6°C 66% 4.4 mph ESE7.1 kmh ESE 6.9 mph11.1 kmh 29.83 in1010.2 mb 0.00 in0.0 mm 0.00 in/hr0.0 mm/hr 0.00 in0.0 mm
03:35 AM 58.9°F14.9°C 47.5°F8.6°C 66% 1.7 mph SE2.7 kmh SE 6.5 mph10.5 kmh 29.83 in1010.2 mb 0.00 in0.0 mm 0.00 in/hr0.0 mm/hr 0.00 in0.0 mm
03:40 AM 58.9°F14.9°C 47.5°F8.6°C 66% 4.3 mph SSE6.9 kmh SSE 6.3 mph10.1 kmh 29.83 in1010.2 mb 0.00 in0.0 mm 0.00 in/hr0.0 mm/hr 0.00 in0.0 mm
03:45 AM 58.7°F14.8°C 47.4°F8.6°C 66% 3.1 mph ESE5.0 kmh ESE 6.3 mph10.1 kmh 29.83 in1010.2 mb 0.00 in0.0 mm 0.00 in/hr0.0 mm/hr 0.00 in0.0 mm
03:50 AM 58.7°F14.8°C 47.7°F8.7°C 67% 4.1 mph SSE6.6 kmh SSE 6.5 mph10.5 kmh 29.83 in1010.2 mb 0.00 in0.0 mm 0.00 in/hr0.0 mm/hr 0.00 in0.0 mm
03:55 AM 59.2°F15.1°C 47.9°F8.8°C 66% 6.0 mph SW9.7 kmh SW 8.7 mph14.0 kmh 29.83 in1010.2 mb 0.00 in0.0 mm 0.00 in/hr0.0 mm/hr 0.00 in0.0 mm
04:00 AM 59.8°F15.4°C 48.0°F8.9°C 65% 10.8 mph S17.4 kmh S 13.6 mph21.9 kmh 29.83 in1010.2 mb 0.00 in0.0 mm 0.00 in/hr0.0 mm/hr 0.00 in0.0 mm
04:05 AM 60.1°F15.6°C 48.3°F9.1°C 65% 8.9 mph SSW14.3 kmh SSW 13.6 mph21.9 kmh 29.82 in1009.8 mb 0.00 in0.0 mm 0.00 in/hr0.0 mm/hr 0.00 in0.0 mm
04:10 AM 60.1°F15.6°C 48.3°F9.1°C 65% 8.0 mph SW12.9 kmh SW 12.8 mph20.6 kmh 29.82 in1009.8 mb 0.00 in0.0 mm 0.00 in/hr0.0 mm/hr 0.00 in0.0 mm
04:15 AM 60.3°F15.7°C 48.5°F9.2°C 65% 11.4 mph S18.3 kmh S 13.6 mph21.9 kmh 29.82 in1009.8 mb 0.00 in0.0 mm 0.00 in/hr0.0 mm/hr 0.00 in0.0 mm
04:20 AM 60.5°F15.8°C 48.7°F9.3°C 65% 11.5 mph SSW18.5 kmh SSW 16.3 mph26.2 kmh 29.82 in1009.8 mb 0.00 in0.0 mm 0.00 in/hr0.0 mm/hr 0.00 in0.0 mm
04:24 AM 60.5°F15.8°C 48.7°F9.3°C 65% 5.9 mph SSW9.5 kmh SSW 16.3 mph26.2 kmh 29.82 in1009.8 mb 0.00 in0.0 mm 0.00 in/hr0.0 mm/hr 0.00 in0.0 mm
04:29 AM 60.5°F15.8°C 48.7°F9.3°C 65% 8.1 mph S13.0 kmh S 13.9 mph22.4 kmh 29.82 in1009.8 mb 0.00 in0.0 mm 0.00 in/hr0.0 mm/hr 0.00 in0.0 mm
04:34 AM 60.3°F15.7°C 48.5°F9.2°C 65% 10.2 mph S16.4 kmh S 14.3 mph23.0 kmh 29.82 in1009.8 mb 0.00 in0.0 mm 0.00 in/hr0.0 mm/hr 0.00 in0.0 mm
04:39 AM 60.3°F15.7°C 48.5°F9.2°C 65% 8.5 mph SSW13.7 kmh SSW 14.3 mph23.0 kmh 29.82 in1009.8 mb 0.00 in0.0 mm 0.00 in/hr0.0 mm/hr 0.00 in0.0 mm
04:44 AM 60.3°F15.7°C 48.5°F9.2°C 65% 9.1 mph SSW14.6 kmh SSW 14.1 mph22.7 kmh 29.81 in1009.5 mb 0.00 in0.0 mm 0.00 in/hr0.0 mm/hr 0.00 in0.0 mm
04:49 AM 60.1°F15.6°C 48.8°F9.3°C 66% 7.4 mph S11.9 kmh S 11.4 mph18.3 kmh 29.81 in1009.5 mb 0.00 in0.0 mm 0.00 in/hr0.0 mm/hr 0.00 in0.0 mm
04:54 AM 60.1°F15.6°C 48.8°F9.3°C 66% 7.2 mph S11.6 kmh S 11.0 mph17.7 kmh 29.81 in1009.5 mb 0.00 in0.0 mm 0.00 in/hr0.0 mm/hr 0.00 in0.0 mm
04:59 AM 60.1°F15.6°C 48.8°F9.3°C 66% 7.7 mph S12.4 kmh S 13.2 mph21.2 kmh 29.81 in1009.5 mb 0.00 in0.0 mm 0.00 in/hr0.0 mm/hr 0.00 in0.0 mm
05:05 AM 60.1°F15.6°C 48.8°F9.3°C 66% 8.7 mph S14.0 kmh S 13.2 mph21.2 kmh 29.81 in1009.5 mb 0.00 in0.0 mm 0.00 in/hr0.0 mm/hr 0.00 in0.0 mm
05:10 AM 60.1°F15.6°C 48.8°F9.3°C 66% 10.5 mph SSW16.9 kmh SSW 15.4 mph24.8 kmh 29.81 in1009.5 mb 0.00 in0.0 mm 0.00 in/hr0.0 mm/hr 0.00 in0.0 mm
05:15 AM 60.1°F15.6°C 48.8°F9.3°C 66% 8.2 mph S13.2 kmh S 15.4 mph24.8 kmh 29.81 in1009.5 mb 0.00 in0.0 mm 0.00 in/hr0.0 mm/hr 0.00 in0.0 mm
05:20 AM 60.1°F15.6°C 48.8°F9.3°C 66% 8.2 mph S13.2 kmh S 11.6 mph18.7 kmh 29.81 in1009.5 mb 0.00 in0.0 mm 0.00 in/hr0.0 mm/hr 0.00 in0.0 mm
05:25 AM 59.9°F15.5°C 48.6°F9.2°C 66% 9.6 mph S15.4 kmh S 12.8 mph20.6 kmh 29.81 in1009.5 mb 0.00 in0.0 mm 0.00 in/hr0.0 mm/hr 0.00 in0.0 mm
05:30 AM 60.1°F15.6°C 48.8°F9.3°C 66% 7.8 mph S12.6 kmh S 13.0 mph20.9 kmh 29.81 in1009.5 mb 0.00 in0.0 mm 0.00 in/hr0.0 mm/hr 0.00 in0.0 mm
05:35 AM 59.9°F15.5°C 48.6°F9.2°C 66% 8.7 mph SSW14.0 kmh SSW 13.0 mph20.9 kmh 29.81 in1009.5 mb 0.00 in0.0 mm 0.00 in/hr0.0 mm/hr 0.00 in0.0 mm
05:40 AM 59.9°F15.5°C 48.6°F9.2°C 66% 9.9 mph S15.9 kmh S 12.1 mph19.5 kmh 29.81 in1009.5 mb 0.00 in0.0 mm 0.00 in/hr0.0 mm/hr 0.00 in0.0 mm
05:45 AM 59.8°F15.4°C 48.4°F9.1°C 66% 8.0 mph S12.9 kmh S 12.1 mph19.5 kmh 29.81 in1009.5 mb 0.00 in0.0 mm 0.00 in/hr0.0 mm/hr 0.00 in0.0 mm
05:50 AM 59.8°F15.4°C 48.4°F9.1°C 66% 8.9 mph S14.3 kmh S 11.6 mph18.7 kmh 29.80 in1009.1 mb 0.00 in0.0 mm 0.00 in/hr0.0 mm/hr 0.00 in0.0 mm
05:55 AM 59.8°F15.4°C 48.4°F9.1°C 66% 10.0 mph S16.1 kmh S 12.1 mph19.5 kmh 29.80 in1009.1 mb 0.00 in0.0 mm 0.00 in/hr0.0 mm/hr 0.00 in0.0 mm
06:00 AM 59.8°F15.4°C 48.4°F9.1°C 66% 4.8 mph S7.7 kmh S 12.1 mph19.5 kmh 29.80 in1009.1 mb 0.00 in0.0 mm 0.00 in/hr0.0 mm/hr 0.00 in0.0 mm
06:05 AM 59.6°F15.3°C 48.6°F9.2°C 67% 5.7 mph SSE9.2 kmh SSE 11.9 mph19.2 kmh 29.80 in1009.1 mb 0.00 in0.0 mm 0.00 in/hr0.0 mm/hr 0.00 in0.0 mm
06:10 AM 59.6°F15.3°C 48.6°F9.2°C 67% 8.1 mph SSE13.0 kmh SSE 10.1 mph16.3 kmh 29.80 in1009.1 mb 0.00 in0.0 mm 0.00 in/hr0.0 mm/hr 0.00 in0.0 mm
06:15 AM 59.4°F15.2°C 48.4°F9.1°C 67% 8.7 mph S14.0 kmh S 10.7 mph17.2 kmh 29.80 in1009.1 mb 0.00 in0.0 mm 0.00 in/hr0.0 mm/hr 0.00 in0.0 mm
06:20 AM 59.4°F15.2°C 48.4°F9.1°C 67% 6.1 mph SSE9.8 kmh SSE 10.7 mph17.2 kmh 29.79 in1008.8 mb 0.00 in0.0 mm 0.00 in/hr0.0 mm/hr 0.00 in0.0 mm
06:25 AM 59.4°F15.2°C 48.4°F9.1°C 67% 8.6 mph SSE13.8 kmh SSE 11.2 mph18.0 kmh 29.79 in1008.8 mb 0.00 in0.0 mm 0.00 in/hr0.0 mm/hr 0.00 in0.0 mm
06:30 AM 59.4°F15.2°C 48.9°F9.4°C 68% 6.7 mph SSE10.8 kmh SSE 12.1 mph19.5 kmh 29.79 in1008.8 mb 0.00 in0.0 mm 0.00 in/hr0.0 mm/hr 0.00 in0.0 mm
06:35 AM 59.2°F15.1°C 48.7°F9.3°C 68% 5.9 mph SSE9.5 kmh SSE 12.1 mph19.5 kmh 29.79 in1008.8 mb 0.00 in0.0 mm 0.00 in/hr0.0 mm/hr 0.00 in0.0 mm
06:40 AM 59.0°F15.0°C 48.5°F9.2°C 68% 9.2 mph S14.8 kmh S 11.0 mph17.7 kmh 29.78 in1008.5 mb 0.00 in0.0 mm 0.00 in/hr0.0 mm/hr 0.00 in0.0 mm
06:45 AM 59.0°F15.0°C 48.5°F9.2°C 68% 10.9 mph SSE17.5 kmh SSE 13.4 mph21.6 kmh 29.78 in1008.5 mb 0.00 in0.0 mm 0.00 in/hr0.0 mm/hr 0.00 in0.0 mm
06:50 AM 59.2°F15.1°C 48.2°F9.0°C 67% 11.6 mph S18.7 kmh S 15.0 mph24.1 kmh 29.78 in1008.5 mb 0.00 in0.0 mm 0.00 in/hr0.0 mm/hr 0.00 in0.0 mm
06:55 AM 59.2°F15.1°C 48.2°F9.0°C 67% 12.5 mph S20.1 kmh S 15.0 mph24.1 kmh 29.78 in1008.5 mb 0.00 in0.0 mm 0.00 in/hr0.0 mm/hr 0.00 in0.0 mm
07:00 AM 59.2°F15.1°C 47.9°F8.8°C 66% 14.2 mph SSE22.9 kmh SSE 18.3 mph29.5 kmh 29.78 in1008.5 mb 0.00 in0.0 mm 0.00 in/hr0.0 mm/hr 0.00 in0.0 mm
07:05 AM 59.4°F15.2°C 48.1°F8.9°C 66% 9.0 mph SSE14.5 kmh SSE 18.3 mph29.5 kmh 29.78 in1008.5 mb 0.00 in0.0 mm 0.00 in/hr0.0 mm/hr 0.00 in0.0 mm
07:10 AM 59.4°F15.2°C 48.1°F8.9°C 66% 9.5 mph SSW15.3 kmh SSW 18.3 mph29.5 kmh 29.77 in1008.1 mb 0.00 in0.0 mm 0.00 in/hr0.0 mm/hr 0.00 in0.0 mm
07:15 AM 59.4°F15.2°C 47.6°F8.7°C 65% 10.5 mph SSE16.9 kmh SSE 15.4 mph24.8 kmh 29.77 in1008.1 mb 0.00 in0.0 mm 0.00 in/hr0.0 mm/hr 0.00 in0.0 mm
07:20 AM 59.6°F15.3°C 47.3°F8.5°C 64% 10.9 mph SSE17.5 kmh SSE 15.7 mph25.3 kmh 29.77 in1008.1 mb 0.00 in0.0 mm 0.00 in/hr0.0 mm/hr 0.00 in0.0 mm
07:25 AM 59.6°F15.3°C 47.3°F8.5°C 64% 10.1 mph S16.3 kmh S 15.7 mph25.3 kmh 29.77 in1008.1 mb 0.00 in0.0 mm 0.00 in/hr0.0 mm/hr 0.00 in0.0 mm
07:30 AM 59.9°F15.5°C 47.7°F8.7°C 64% 11.3 mph S18.2 kmh S 15.2 mph24.5 kmh 29.77 in1008.1 mb 0.00 in0.0 mm 0.00 in/hr0.0 mm/hr 0.00 in0.0 mm
07:35 AM 60.1°F15.6°C 47.5°F8.6°C 63% 11.5 mph SSE18.5 kmh SSE 15.2 mph24.5 kmh 29.76 in1007.8 mb 0.00 in0.0 mm 0.00 in/hr0.0 mm/hr 0.00 in0.0 mm
07:40 AM 60.1°F15.6°C 47.9°F8.8°C 64% 6.1 mph SSE9.8 kmh SSE 15.0 mph24.1 kmh 29.75 in1007.5 mb 0.00 in0.0 mm 0.00 in/hr0.0 mm/hr 0.00 in0.0 mm
07:45 AM 60.1°F15.6°C 47.5°F8.6°C 63% 8.8 mph SSE14.2 kmh SSE 14.1 mph22.7 kmh 29.75 in1007.5 mb 0.00 in0.0 mm 0.00 in/hr0.0 mm/hr 0.00 in0.0 mm
07:50 AM 60.5°F15.8°C 47.9°F8.8°C 63% 4.9 mph SSE7.9 kmh SSE 12.1 mph19.5 kmh 29.74 in1007.1 mb 0.00 in0.0 mm 0.00 in/hr0.0 mm/hr 0.00 in0.0 mm
07:55 AM 60.5°F15.8°C 47.9°F8.8°C 63% 8.5 mph SE13.7 kmh SE 9.8 mph15.8 kmh 29.74 in1007.1 mb 0.00 in0.0 mm 0.00 in/hr0.0 mm/hr 0.00 in0.0 mm
08:00 AM 60.5°F15.8°C 48.2°F9.0°C 64% 5.7 mph SE9.2 kmh SE 10.5 mph16.9 kmh 29.74 in1007.1 mb 0.00 in0.0 mm 0.00 in/hr0.0 mm/hr 0.00 in0.0 mm
08:05 AM 60.3°F15.7°C 47.7°F8.7°C 63% 12.2 mph SE19.6 kmh SE 14.8 mph23.8 kmh 29.73 in1006.8 mb 0.00 in0.0 mm 0.00 in/hr0.0 mm/hr 0.00 in0.0 mm
08:10 AM 60.7°F15.9°C 47.6°F8.7°C 62% 10.9 mph SE17.5 kmh SE 14.8 mph23.8 kmh 29.73 in1006.8 mb 0.00 in0.0 mm 0.00 in/hr0.0 mm/hr 0.00 in0.0 mm
08:15 AM 61.0°F16.1°C 46.6°F8.1°C 59% 13.8 mph SE22.2 kmh SE 17.2 mph27.7 kmh 29.72 in1006.4 mb 0.00 in0.0 mm 0.00 in/hr0.0 mm/hr 0.00 in0.0 mm
08:20 AM 61.4°F16.3°C 47.0°F8.3°C 59% 11.7 mph SE18.8 kmh SE 17.2 mph27.7 kmh 29.72 in1006.4 mb 0.00 in0.0 mm 0.00 in/hr0.0 mm/hr 0.00 in0.0 mm
08:25 AM 61.6°F16.4°C 46.6°F8.1°C 58% 8.8 mph SE14.2 kmh SE 15.7 mph25.3 kmh 29.73 in1006.8 mb 0.00 in0.0 mm 0.00 in/hr0.0 mm/hr 0.00 in0.0 mm
08:30 AM 61.6°F16.4°C 46.6°F8.1°C 58% 10.0 mph SE16.1 kmh SE 16.3 mph26.2 kmh 29.72 in1006.4 mb 0.00 in0.0 mm 0.00 in/hr0.0 mm/hr 0.00 in0.0 mm
08:35 AM 61.4°F16.3°C 46.0°F7.8°C 57% 13.9 mph SE22.4 kmh SE 17.4 mph28.0 kmh 29.72 in1006.4 mb 0.00 in0.0 mm 0.00 in/hr0.0 mm/hr 0.00 in0.0 mm
08:40 AM 61.6°F16.4°C 46.2°F7.9°C 57% 9.6 mph SSE15.4 kmh SSE 17.4 mph28.0 kmh 29.72 in1006.4 mb 0.00 in0.0 mm 0.00 in/hr0.0 mm/hr 0.00 in0.0 mm
08:45 AM 61.6°F16.4°C 45.7°F7.6°C 56% 11.6 mph SSE18.7 kmh SSE 15.9 mph25.6 kmh 29.72 in1006.4 mb 0.00 in0.0 mm 0.00 in/hr0.0 mm/hr 0.00 in0.0 mm
08:50 AM 61.7°F16.5°C 45.8°F7.7°C 56% 10.3 mph S16.6 kmh S 15.9 mph25.6 kmh 29.72 in1006.4 mb 0.00 in0.0 mm 0.00 in/hr0.0 mm/hr 0.00 in0.0 mm
08:55 AM 61.9°F16.6°C 46.0°F7.8°C 56% 9.0 mph SSE14.5 kmh SSE 19.5 mph31.4 kmh 29.72 in1006.4 mb 0.00 in0.0 mm 0.00 in/hr0.0 mm/hr 0.00 in0.0 mm
09:00 AM 61.9°F16.6°C 46.5°F8.1°C 57% 7.0 mph S11.3 kmh S 19.5 mph31.4 kmh 29.74 in1007.1 mb 0.00 in0.0 mm 0.00 in/hr0.0 mm/hr 0.00 in0.0 mm
09:06 AM 61.7°F16.5°C 47.4°F8.6°C 59% 4.4 mph SW7.1 kmh SW 10.1 mph16.3 kmh 29.74 in1007.1 mb 0.00 in0.0 mm 0.00 in/hr0.0 mm/hr 0.00 in0.0 mm
09:11 AM 61.6°F16.4°C 46.6°F8.1°C 58% 11.2 mph S18.0 kmh S 12.8 mph20.6 kmh 29.74 in1007.1 mb 0.00 in0.0 mm 0.00 in/hr0.0 mm/hr 0.00 in0.0 mm
09:16 AM 61.6°F16.4°C 46.6°F8.1°C 58% 16.5 mph S26.6 kmh S 22.1 mph35.6 kmh 29.75 in1007.5 mb 0.00 in0.0 mm 0.00 in/hr0.0 mm/hr 0.00 in0.0 mm
09:21 AM 61.2°F16.2°C 46.8°F8.2°C 59% 16.9 mph S27.2 kmh S 23.3 mph37.5 kmh 29.76 in1007.8 mb 0.00 in0.0 mm 0.00 in/hr0.0 mm/hr 0.00 in0.0 mm
09:24 AM 60.8°F16.0°C 47.4°F8.6°C 61% 12.3 mph SSW19.8 kmh SSW 23.3 mph37.5 kmh 29.75 in1007.5 mb 0.00 in0.0 mm 0.00 in/hr0.0 mm/hr 0.00 in0.0 mm
09:29 AM 60.5°F15.8°C 47.9°F8.8°C 63% 13.2 mph SSW21.2 kmh SSW 23.3 mph37.5 kmh 29.76 in1007.8 mb 0.00 in0.0 mm 0.00 in/hr0.0 mm/hr 0.00 in0.0 mm
09:34 AM 60.1°F15.6°C 49.1°F9.5°C 67% 14.3 mph SSW23.0 kmh SSW 20.4 mph32.8 kmh 29.76 in1007.8 mb 0.00 in0.0 mm 0.00 in/hr0.0 mm/hr 0.00 in0.0 mm
09:39 AM 58.7°F14.8°C 50.4°F10.2°C 74% 10.2 mph SSW16.4 kmh SSW 20.4 mph32.8 kmh 29.77 in1008.1 mb 0.01 in0.3 mm 0.12 in/hr3.0 mm/hr 0.01 in0.3 mm
09:44 AM 57.6°F14.2°C 51.1°F10.6°C 79% 11.8 mph SSW19.0 kmh SSW 17.4 mph28.0 kmh 29.78 in1008.5 mb 0.03 in0.8 mm 0.24 in/hr6.1 mm/hr 0.03 in0.8 mm
09:49 AM 56.5°F13.6°C 50.4°F10.2°C 80% 10.7 mph SW17.2 kmh SW 15.7 mph25.3 kmh 29.79 in1008.8 mb 0.06 in1.5 mm 0.36 in/hr9.1 mm/hr 0.06 in1.5 mm
09:54 AM 55.8°F13.2°C 49.3°F9.6°C 79% 9.8 mph SW15.8 kmh SW 13.2 mph21.2 kmh 29.79 in1008.8 mb 0.07 in1.8 mm 0.12 in/hr3.0 mm/hr 0.07 in1.8 mm
09:59 AM 55.1°F12.8°C 48.3°F9.1°C 78% 11.5 mph SW18.5 kmh SW 13.2 mph21.2 kmh 29.80 in1009.1 mb 0.08 in2.0 mm 0.12 in/hr3.0 mm/hr 0.08 in2.0 mm
10:05 AM 54.4°F12.4°C 47.6°F8.7°C 78% 12.9 mph WSW20.8 kmh WSW 15.7 mph25.3 kmh 29.80 in1009.1 mb 0.08 in2.0 mm 0.00 in/hr0.0 mm/hr 0.08 in2.0 mm
10:10 AM 53.8°F12.1°C 47.5°F8.6°C 79% 9.9 mph WSW15.9 kmh WSW 15.7 mph25.3 kmh 29.81 in1009.5 mb 0.09 in2.3 mm 0.12 in/hr3.0 mm/hr 0.09 in2.3 mm
10:15 AM 53.3°F11.8°C 47.0°F8.3°C 79% 6.9 mph W11.1 kmh W 13.0 mph20.9 kmh 29.82 in1009.8 mb 0.09 in2.3 mm 0.00 in/hr0.0 mm/hr 0.09 in2.3 mm
10:20 AM 52.9°F11.6°C 47.0°F8.3°C 80% 7.1 mph WSW11.4 kmh WSW 12.8 mph20.6 kmh 29.83 in1010.2 mb 0.09 in2.3 mm 0.00 in/hr0.0 mm/hr 0.09 in2.3 mm
10:25 AM 52.7°F11.5°C 46.4°F8.0°C 79% 10.2 mph WSW16.4 kmh WSW 12.8 mph20.6 kmh 29.83 in1010.2 mb 0.09 in2.3 mm 0.00 in/hr0.0 mm/hr 0.09 in2.3 mm
10:30 AM 52.4°F11.3°C 46.4°F8.0°C 80% 10.0 mph SW16.1 kmh SW 12.8 mph20.6 kmh 29.84 in1010.5 mb 0.09 in2.3 mm 0.00 in/hr0.0 mm/hr 0.09 in2.3 mm
10:34 AM 52.4°F11.3°C 46.4°F8.0°C 80% 11.8 mph WSW19.0 kmh WSW 17.4 mph28.0 kmh 29.84 in1010.5 mb 0.10 in2.5 mm 0.15 in/hr3.8 mm/hr 0.10 in2.5 mm
11:00 AM 52.6°F11.4°C 46.3°F7.9°C 79% 6.9 mph SW11.1 kmh SW 6.9 mph11.1 kmh 29.84 in1010.5 mb 0.02 in0.5 mm 0.00 in/hr0.0 mm/hr 0.10 in2.5 mm
12:00 PM 51.3°F10.7°C 44.4°F6.9°C 77% 11.6 mph SW18.7 kmh SW 11.6 mph18.7 kmh 29.86 in1011.2 mb 0.03 in0.8 mm 0.00 in/hr0.0 mm/hr 0.10 in2.5 mm
01:00 PM 52.6°F11.4°C 44.6°F7.0°C 74% 8.9 mph SSW14.3 kmh SSW 8.9 mph14.3 kmh 29.86 in1011.2 mb 0.01 in0.3 mm 0.00 in/hr0.0 mm/hr 0.13 in3.3 mm
02:00 PM 54.4°F12.4°C 44.8°F7.1°C 70% 7.6 mph W12.2 kmh W 7.6 mph12.2 kmh 29.85 in1010.8 mb 0.01 in0.3 mm 0.00 in/hr0.0 mm/hr 0.14 in3.6 mm
03:00 PM 58.1°F14.5°C 46.0°F7.8°C 64% 9.8 mph SSW15.8 kmh SSW 9.8 mph15.8 kmh 29.84 in1010.5 mb 0.00 in0.0 mm 0.00 in/hr0.0 mm/hr 0.16 in4.1 mm